createdAt,value
2019-03-22T00:00:36.654Z,6.87
2019-03-22T00:03:06.355Z,8.67
2019-03-22T00:05:36.086Z,8.40
2019-03-22T00:08:05.805Z,6.97
2019-03-22T00:10:35.531Z,7.87
2019-03-22T00:13:05.232Z,8.80
2019-03-22T00:15:34.876Z,7.17
2019-03-22T00:18:04.616Z,10.73
2019-03-22T00:20:34.702Z,9.53
2019-03-22T00:23:04.404Z,9.07
2019-03-22T00:25:34.074Z,7.43
2019-03-22T00:28:03.730Z,12.63
2019-03-22T00:30:33.475Z,10.27
2019-03-22T00:33:03.451Z,7.57
2019-03-22T00:35:33.094Z,8.03
2019-03-22T00:38:02.781Z,12.13
2019-03-22T00:40:32.521Z,7.00
2019-03-22T00:43:02.141Z,7.90
2019-03-22T00:45:31.814Z,7.63
2019-03-22T00:48:01.465Z,8.03
2019-03-22T00:50:31.155Z,13.00
2019-03-22T00:53:01.001Z,8.53
2019-03-22T00:55:30.660Z,7.40
2019-03-22T00:58:00.443Z,6.93
2019-03-22T01:00:30.118Z,8.07
2019-03-22T01:02:59.853Z,7.83
2019-03-22T01:05:29.514Z,8.63
2019-03-22T01:07:59.150Z,8.27
2019-03-22T01:10:28.863Z,7.40
2019-03-22T01:12:58.634Z,10.50
2019-03-22T01:15:28.369Z,8.73
2019-03-22T01:17:58.030Z,9.50
2019-03-22T01:20:27.672Z,7.10
2019-03-22T01:22:57.342Z,7.23
2019-03-22T01:25:26.979Z,10.23
2019-03-22T01:27:56.867Z,7.33
2019-03-22T01:30:26.517Z,9.03
2019-03-22T01:32:56.220Z,6.73
2019-03-22T01:35:25.879Z,7.47
2019-03-22T01:37:55.567Z,8.60
2019-03-22T01:40:25.252Z,7.07
2019-03-22T01:42:55.419Z,8.20
2019-03-22T01:45:25.061Z,8.27
2019-03-22T01:47:54.857Z,7.60
2019-03-22T01:50:24.499Z,11.57
2019-03-22T01:52:54.170Z,8.80
2019-03-22T01:55:23.833Z,10.00
2019-03-22T01:57:54.131Z,7.83
2019-03-22T02:00:24.094Z,7.80
2019-03-22T02:02:53.855Z,8.13
2019-03-22T02:05:23.510Z,9.13
2019-03-22T02:07:53.191Z,7.83
2019-03-22T02:10:22.855Z,8.67
2019-03-22T02:12:52.532Z,9.20
2019-03-22T02:15:22.480Z,10.60
2019-03-22T02:17:52.241Z,9.47
2019-03-22T02:20:22.027Z,9.00
2019-03-22T02:22:51.706Z,7.67
2019-03-22T02:25:21.403Z,10.07
2019-03-22T02:27:51.069Z,8.30
2019-03-22T02:30:20.780Z,11.33
2019-03-22T02:32:50.452Z,8.00
2019-03-22T02:35:28.818Z,9.03
2019-03-22T02:37:51.506Z,8.63
2019-03-22T02:40:21.254Z,8.10
2019-03-22T02:42:50.950Z,8.50
2019-03-22T02:45:20.569Z,10.00
2019-03-22T02:47:50.257Z,8.53
2019-03-22T02:50:20.570Z,9.27
2019-03-22T02:52:50.763Z,8.77
2019-03-22T02:55:20.444Z,9.93
2019-03-22T02:57:50.139Z,8.00
2019-03-22T03:00:19.877Z,8.50
2019-03-22T03:02:49.601Z,8.17
2019-03-22T03:05:19.341Z,8.73
2019-03-22T03:07:49.020Z,9.43
2019-03-22T03:10:18.681Z,8.67
2019-03-22T03:12:48.347Z,9.87
2019-03-22T03:15:18.010Z,7.13
2019-03-22T03:17:47.801Z,9.90
2019-03-22T03:20:18.057Z,12.53
2019-03-22T03:22:47.712Z,8.70
2019-03-22T03:25:17.911Z,12.70
2019-03-22T03:27:47.720Z,10.40
2019-03-22T03:30:18.434Z,7.87
2019-03-22T03:32:48.315Z,11.83
2019-03-22T03:35:18.727Z,7.50
2019-03-22T03:37:48.495Z,8.37
2019-03-22T03:40:19.878Z,8.67
2019-03-22T03:42:49.655Z,9.57
2019-03-22T03:45:34.710Z,8.10
2019-03-22T03:48:05.184Z,8.43
2019-03-22T03:50:35.002Z,7.67
2019-03-22T03:53:04.709Z,8.17
2019-03-22T03:55:34.524Z,9.30
2019-03-22T03:58:04.607Z,8.07
2019-03-22T04:00:34.267Z,8.53
2019-03-22T04:03:03.915Z,8.37
2019-03-22T04:05:33.584Z,9.17
2019-03-22T04:08:03.256Z,9.30
2019-03-22T04:10:32.899Z,8.30
2019-03-22T04:13:02.559Z,8.33
2019-03-22T04:15:32.261Z,9.03
2019-03-22T04:18:01.921Z,13.30
2019-03-22T04:20:31.591Z,9.00
2019-03-22T04:23:01.260Z,9.20
2019-03-22T04:25:31.011Z,8.83
2019-03-22T04:28:00.916Z,18.27
2019-03-22T04:30:30.602Z,8.27
2019-03-22T04:33:00.271Z,7.73
2019-03-22T04:35:29.934Z,8.03
2019-03-22T04:37:59.632Z,8.43
2019-03-22T04:40:29.870Z,8.40
2019-03-22T04:42:59.539Z,9.67
2019-03-22T04:45:32.054Z,8.77
2019-03-22T04:48:06.197Z,8.07
2019-03-22T04:50:40.099Z,8.03
2019-03-22T04:53:12.504Z,8.73
2019-03-22T04:55:45.017Z,10.20
2019-03-22T04:58:17.293Z,8.47
2019-03-22T05:00:48.260Z,9.33
2019-03-22T05:03:19.307Z,12.13
2019-03-22T05:05:51.066Z,8.70
2019-03-22T05:08:23.247Z,8.67
2019-03-22T05:10:54.244Z,8.97
2019-03-22T05:13:25.194Z,7.20
2019-03-22T05:15:55.658Z,8.67
2019-03-22T05:18:26.779Z,8.27
2019-03-22T05:20:56.545Z,8.40
2019-03-22T05:23:28.413Z,7.00
2019-03-22T05:25:59.855Z,9.80
2019-03-22T05:28:31.613Z,8.13
2019-03-22T05:31:30.305Z,10.57
2019-03-22T05:33:59.970Z,8.50
2019-03-22T05:36:29.653Z,8.87
2019-03-22T05:38:59.330Z,12.67
2019-03-22T05:41:29.088Z,7.70
2019-03-22T05:43:58.805Z,8.13
2019-03-22T05:46:28.491Z,9.50
2019-03-22T05:48:58.187Z,8.23
2019-03-22T05:51:33.020Z,8.63
2019-03-22T05:54:02.684Z,8.67
2019-03-22T05:56:32.796Z,8.00
2019-03-22T05:59:02.503Z,9.90
2019-03-22T06:01:32.256Z,8.87
2019-03-22T06:04:01.948Z,13.20
2019-03-22T06:06:31.613Z,9.40
2019-03-22T06:09:01.290Z,10.07
2019-03-22T06:11:30.970Z,9.63
2019-03-22T06:14:00.562Z,13.47
2019-03-22T06:16:30.261Z,9.90
2019-03-22T06:18:59.906Z,9.10
2019-03-22T06:21:29.582Z,8.23
2019-03-22T06:23:59.266Z,8.10
2019-03-22T06:26:28.907Z,10.20
2019-03-22T06:28:58.578Z,8.90
2019-03-22T06:31:28.232Z,8.47
2019-03-22T06:33:57.981Z,8.50
2019-03-22T06:36:27.733Z,9.50
2019-03-22T06:38:57.401Z,9.27
2019-03-22T06:41:27.103Z,9.40
2019-03-22T06:43:56.757Z,10.83
2019-03-22T06:46:26.508Z,7.73
2019-03-22T06:48:56.128Z,8.47
2019-03-22T06:51:25.807Z,8.40
2019-03-22T06:53:55.490Z,9.87
2019-03-22T06:56:25.127Z,9.63
2019-03-22T06:58:54.805Z,10.27
2019-03-22T07:01:24.461Z,8.77
2019-03-22T07:03:54.350Z,8.17
2019-03-22T07:06:24.031Z,9.57
2019-03-22T07:08:53.742Z,10.70
2019-03-22T07:11:23.388Z,8.70
2019-03-22T07:13:53.035Z,9.27
2019-03-22T07:16:22.757Z,7.83
2019-03-22T07:18:52.420Z,9.17
2019-03-22T07:21:22.135Z,10.13
2019-03-22T07:23:51.851Z,11.03
2019-03-22T07:26:21.532Z,8.13
2019-03-22T07:28:51.316Z,8.20
2019-03-22T07:31:21.004Z,8.17
2019-03-22T07:33:50.940Z,7.57
2019-03-22T07:36:20.611Z,10.20
2019-03-22T07:38:50.245Z,8.67
2019-03-22T07:41:19.929Z,9.33
2019-03-22T07:43:49.589Z,12.50
2019-03-22T07:46:19.283Z,9.97
2019-03-22T07:48:48.981Z,9.30
2019-03-22T07:51:18.644Z,8.70
2019-03-22T07:53:48.424Z,11.87
2019-03-22T07:56:18.100Z,9.47
2019-03-22T07:58:47.795Z,12.53
2019-03-22T08:01:17.507Z,16.90
2019-03-22T08:03:47.253Z,10.87
2019-03-22T08:06:17.009Z,10.23
2019-03-22T08:08:46.691Z,10.37
2019-03-22T08:11:16.429Z,9.87
2019-03-22T08:13:46.204Z,11.17
2019-03-22T08:16:15.840Z,10.63
2019-03-22T08:18:45.607Z,11.03
2019-03-22T08:21:15.326Z,17.33
2019-03-22T08:23:44.999Z,10.23
2019-03-22T08:26:14.665Z,9.77
2019-03-22T08:28:44.432Z,7.87
2019-03-22T08:31:14.171Z,8.03
2019-03-22T08:33:43.872Z,7.63
2019-03-22T08:36:14.919Z,8.27
2019-03-22T08:38:45.009Z,10.10
2019-03-22T08:41:14.663Z,6.63
2019-03-22T08:43:44.387Z,10.43
2019-03-22T08:46:14.135Z,6.93
2019-03-22T08:48:43.876Z,7.33
2019-03-22T08:51:13.537Z,7.87
2019-03-22T08:53:54.763Z,6.93
2019-03-22T08:56:14.626Z,8.07
2019-03-22T08:58:44.265Z,7.37
2019-03-22T09:01:14.022Z,6.73
2019-03-22T09:03:43.788Z,7.70
2019-03-22T09:06:13.418Z,6.83
2019-03-22T09:08:43.195Z,7.73
2019-03-22T09:11:12.899Z,6.47
2019-03-22T09:13:42.605Z,6.50
2019-03-22T09:16:12.310Z,7.33
2019-03-22T09:18:42.079Z,6.87
2019-03-22T09:21:11.927Z,6.67
2019-03-22T09:23:41.689Z,11.13
2019-03-22T09:26:11.347Z,6.13
2019-03-22T09:28:41.055Z,6.03
2019-03-22T09:31:11.335Z,6.50
2019-03-22T09:33:41.556Z,6.00
2019-03-22T09:36:11.289Z,6.27
2019-03-22T09:38:41.000Z,6.37
2019-03-22T09:41:10.694Z,5.50
2019-03-22T09:43:40.361Z,10.27
2019-03-22T09:46:10.003Z,6.70
2019-03-22T09:48:39.804Z,6.10
2019-03-22T09:51:09.576Z,6.93
2019-03-22T09:53:39.253Z,5.80
2019-03-22T09:56:09.071Z,7.43
2019-03-22T09:58:38.754Z,6.47
2019-03-22T10:01:08.514Z,6.10
2019-03-22T10:03:38.230Z,6.33
2019-03-22T10:06:08.146Z,6.97
2019-03-22T10:08:37.854Z,5.93
2019-03-22T10:11:07.670Z,9.43
2019-03-22T10:13:37.500Z,7.10
2019-03-22T10:16:07.227Z,7.73
2019-03-22T10:18:37.177Z,7.10
2019-03-22T10:21:07.034Z,6.40
2019-03-22T10:23:36.709Z,8.50
2019-03-22T10:26:06.486Z,5.90
2019-03-22T10:28:36.147Z,8.90
2019-03-22T10:31:05.832Z,6.93
2019-03-22T10:33:35.498Z,6.97
2019-03-22T10:36:05.204Z,7.00
2019-03-22T10:38:34.955Z,6.07
2019-03-22T10:41:05.180Z,6.13
2019-03-22T10:43:34.967Z,7.50
2019-03-22T10:46:07.761Z,5.87
2019-03-22T10:48:36.222Z,9.73
2019-03-22T10:51:06.696Z,5.43
2019-03-22T10:53:36.478Z,6.53
2019-03-22T10:56:06.295Z,5.43
2019-03-22T10:58:35.889Z,6.57
2019-03-22T11:01:08.278Z,6.47
2019-03-22T11:03:37.244Z,6.30
2019-03-22T11:06:07.294Z,7.80
2019-03-22T11:08:36.977Z,5.93
2019-03-22T11:11:06.738Z,6.50
2019-03-22T11:13:36.420Z,7.10
2019-03-22T11:16:06.251Z,7.13
2019-03-22T11:18:37.660Z,6.30
2019-03-22T11:21:07.369Z,6.33
2019-03-22T11:23:37.071Z,7.80
2019-03-22T11:26:06.759Z,5.87
2019-03-22T11:28:36.496Z,5.73
2019-03-22T11:31:06.317Z,6.03
2019-03-22T11:33:36.869Z,6.10
2019-03-22T11:36:06.682Z,5.90
2019-03-22T11:38:36.355Z,5.80
2019-03-22T11:41:06.255Z,6.27
2019-03-22T11:43:36.079Z,5.70
2019-03-22T11:46:05.981Z,6.23
2019-03-22T11:48:35.709Z,6.47
2019-03-22T11:51:05.493Z,5.63
2019-03-22T11:53:35.185Z,8.70
2019-03-22T11:56:04.904Z,9.00
2019-03-22T11:58:34.575Z,6.93
2019-03-22T12:01:04.262Z,6.73
2019-03-22T12:03:33.988Z,9.20
2019-03-22T12:06:03.787Z,5.70
2019-03-22T12:08:33.481Z,5.47
2019-03-22T12:11:03.272Z,7.10
2019-03-22T12:13:34.666Z,5.70
2019-03-22T12:16:04.399Z,5.03
2019-03-22T12:18:34.066Z,6.03
2019-03-22T12:21:03.832Z,5.20
2019-03-22T12:23:33.594Z,6.47
2019-03-22T12:26:03.287Z,6.77
2019-03-22T12:28:32.994Z,5.60
2019-03-22T12:31:02.925Z,4.60
2019-03-22T12:33:32.627Z,4.77
2019-03-22T12:36:02.361Z,5.60
2019-03-22T12:38:32.057Z,5.07
2019-03-22T12:41:01.778Z,4.90
2019-03-22T12:43:31.482Z,3.73
2019-03-22T12:46:01.150Z,4.77
2019-03-22T12:48:30.867Z,4.03
2019-03-22T12:51:00.604Z,3.90
2019-03-22T12:53:30.276Z,4.60
2019-03-22T12:56:00.001Z,4.00
2019-03-22T12:58:29.762Z,6.27
2019-03-22T13:00:59.452Z,5.13
2019-03-22T13:03:29.380Z,4.57
2019-03-22T13:05:59.199Z,4.10
2019-03-22T13:08:28.896Z,3.63
2019-03-22T13:10:58.640Z,3.40
2019-03-22T13:13:28.308Z,3.50
2019-03-22T13:15:58.050Z,4.03
2019-03-22T13:18:27.810Z,3.83
2019-03-22T13:20:57.550Z,4.47
2019-03-22T13:23:27.322Z,6.60
2019-03-22T13:25:57.051Z,3.70
2019-03-22T13:28:26.699Z,3.03
2019-03-22T13:30:56.442Z,3.47
2019-03-22T13:33:26.152Z,3.07
2019-03-22T13:35:55.911Z,2.60
2019-03-22T13:38:25.702Z,2.83
2019-03-22T13:40:55.480Z,3.70
2019-03-22T13:43:25.168Z,2.70
2019-03-22T13:45:54.870Z,3.30
2019-03-22T13:48:24.869Z,2.60
2019-03-22T13:50:54.631Z,3.73
2019-03-22T13:53:24.345Z,2.13
2019-03-22T13:55:53.989Z,2.83
2019-03-22T13:58:23.771Z,2.70
2019-03-22T14:00:53.492Z,2.10
2019-03-22T14:03:23.150Z,3.23
2019-03-22T14:05:52.844Z,2.33
2019-03-22T14:08:22.473Z,3.60
2019-03-22T14:10:52.173Z,2.30
2019-03-22T14:13:21.830Z,2.30
2019-03-22T14:15:51.513Z,3.13
2019-03-22T14:18:21.266Z,2.60
2019-03-22T14:20:50.916Z,4.03
2019-03-22T14:23:20.665Z,2.33
2019-03-22T14:25:50.375Z,7.73
2019-03-22T14:28:20.064Z,2.30
2019-03-22T14:30:49.874Z,3.20
2019-03-22T14:33:19.570Z,2.77
2019-03-22T14:35:49.356Z,8.47
2019-03-22T14:38:19.049Z,3.80
2019-03-22T14:40:48.764Z,2.27
2019-03-22T14:43:18.454Z,5.83
2019-03-22T14:45:48.112Z,2.20
2019-03-22T14:48:17.815Z,2.13
2019-03-22T14:50:47.487Z,2.80
2019-03-22T14:53:17.172Z,2.73
2019-03-22T14:55:46.935Z,2.50
2019-03-22T14:58:16.591Z,3.20
2019-03-22T15:00:46.301Z,2.20
2019-03-22T15:03:25.807Z,2.53
2019-03-22T15:05:58.257Z,2.83
2019-03-22T15:08:27.911Z,2.30
2019-03-22T15:10:57.666Z,2.47
2019-03-22T15:13:31.901Z,3.97
2019-03-22T15:16:11.308Z,3.77
2019-03-22T15:18:58.678Z,2.93
2019-03-22T15:21:46.305Z,5.47
2019-03-22T15:24:39.374Z,2.43
2019-03-22T15:27:26.581Z,3.43
2019-03-22T15:30:05.315Z,3.07
2019-03-22T15:33:00.087Z,4.77
2019-03-22T15:35:47.796Z,3.87
2019-03-22T15:38:42.475Z,3.53
2019-03-22T15:41:12.341Z,5.90
2019-03-22T15:43:42.008Z,3.20
2019-03-22T15:46:11.687Z,4.93
2019-03-22T15:48:41.404Z,5.30
2019-03-22T15:51:11.085Z,6.27
2019-03-22T15:53:40.794Z,4.20
2019-03-22T15:56:10.483Z,5.57
2019-03-22T15:58:40.155Z,6.07
2019-03-22T16:01:09.829Z,6.47
2019-03-22T16:03:44.230Z,5.07
2019-03-22T16:06:10.936Z,5.67
2019-03-22T16:08:40.603Z,4.67
2019-03-22T16:11:10.364Z,6.80
2019-03-22T16:13:40.082Z,9.07
2019-03-22T16:16:09.850Z,6.93
2019-03-22T16:18:39.555Z,6.57
2019-03-22T16:21:09.216Z,4.60
2019-03-22T16:23:38.817Z,5.93
2019-03-22T16:26:08.510Z,4.90
2019-03-22T16:28:38.145Z,4.97
2019-03-22T16:31:07.831Z,4.97
2019-03-22T16:33:37.527Z,4.40
2019-03-22T16:36:07.241Z,4.63
2019-03-22T16:38:36.989Z,4.77
2019-03-22T16:41:06.657Z,5.23
2019-03-22T16:43:36.470Z,4.50
2019-03-22T16:46:06.119Z,6.80
2019-03-22T16:48:35.840Z,5.90
2019-03-22T16:51:05.542Z,5.57
2019-03-22T16:53:35.247Z,5.67
2019-03-22T16:56:04.945Z,5.60
2019-03-22T16:58:34.591Z,5.60
2019-03-22T17:01:05.301Z,5.47
2019-03-22T17:03:34.966Z,6.00
2019-03-22T17:06:04.675Z,7.60
2019-03-22T17:08:34.285Z,6.77
2019-03-22T17:11:04.005Z,9.80
2019-03-22T17:13:33.854Z,4.73
2019-03-22T17:16:03.543Z,4.87
2019-03-22T17:18:33.216Z,7.17
2019-03-22T17:21:02.983Z,5.80
2019-03-22T17:23:32.724Z,4.77
2019-03-22T17:26:02.365Z,6.30
2019-03-22T17:28:32.068Z,8.00
2019-03-22T17:31:01.793Z,4.80
2019-03-22T17:33:31.463Z,5.40
2019-03-22T17:36:01.147Z,5.27
2019-03-22T17:38:30.818Z,6.30
2019-03-22T17:41:00.506Z,5.90
2019-03-22T17:43:30.180Z,8.97
2019-03-22T17:45:59.865Z,5.40
2019-03-22T17:48:29.552Z,9.07
2019-03-22T17:50:59.317Z,15.90
2019-03-22T17:53:29.034Z,8.43
2019-03-22T17:55:58.747Z,22.57
2019-03-22T17:58:28.460Z,12.03
2019-03-22T18:00:58.304Z,11.10
2019-03-22T18:03:27.983Z,5.63
2019-03-22T18:05:57.677Z,5.00
2019-03-22T18:08:27.371Z,5.80
2019-03-22T18:10:57.066Z,11.90
2019-03-22T18:13:26.869Z,30.27
2019-03-22T18:15:56.542Z,28.93
2019-03-22T18:18:26.223Z,32.97
2019-03-22T18:20:55.909Z,26.17
2019-03-22T18:23:35.301Z,9.33
2019-03-22T18:25:57.017Z,7.30
2019-03-22T18:28:26.678Z,4.73
2019-03-22T18:30:56.434Z,5.03
2019-03-22T18:33:26.087Z,3.33
2019-03-22T18:35:55.757Z,3.40
2019-03-22T18:38:25.432Z,3.97
2019-03-22T18:40:55.107Z,9.30
2019-03-22T18:43:24.816Z,6.23
2019-03-22T18:45:54.491Z,3.37
2019-03-22T18:48:24.154Z,4.97
2019-03-22T18:50:56.911Z,3.87
2019-03-22T18:53:25.551Z,4.07
2019-03-22T18:55:55.291Z,5.17
2019-03-22T18:58:24.971Z,3.90
2019-03-22T19:00:54.657Z,5.40
2019-03-22T19:03:24.345Z,4.17
2019-03-22T19:05:54.361Z,6.00
2019-03-22T19:08:24.195Z,4.83
2019-03-22T19:10:54.042Z,5.07
2019-03-22T19:13:30.695Z,6.20
2019-03-22T19:15:55.164Z,6.60
2019-03-22T19:18:24.862Z,5.67
2019-03-22T19:20:54.633Z,5.27
2019-03-22T19:23:24.325Z,5.10
2019-03-22T19:25:54.073Z,5.37
2019-03-22T19:28:23.774Z,6.17
2019-03-22T19:30:53.484Z,4.60
2019-03-22T19:33:23.250Z,5.67
2019-03-22T19:35:52.895Z,7.23
2019-03-22T19:38:22.600Z,4.87
2019-03-22T19:40:52.310Z,4.43
2019-03-22T19:43:22.014Z,4.10
2019-03-22T19:45:51.732Z,7.63
2019-03-22T19:48:21.428Z,6.83
2019-03-22T19:50:51.135Z,8.47
2019-03-22T19:53:20.956Z,7.87
2019-03-22T19:55:50.703Z,8.47
2019-03-22T19:58:20.518Z,7.07
2019-03-22T20:00:50.186Z,8.27
2019-03-22T20:03:19.903Z,9.77
2019-03-22T20:05:49.619Z,9.47
2019-03-22T20:08:19.448Z,14.30
2019-03-22T20:10:49.174Z,14.53
2019-03-22T20:13:18.844Z,14.33
2019-03-22T20:15:48.628Z,11.73
2019-03-22T20:18:18.348Z,9.10
2019-03-22T20:20:48.076Z,7.97
2019-03-22T20:23:17.806Z,6.07
2019-03-22T20:25:47.569Z,6.80
2019-03-22T20:28:17.262Z,5.63
2019-03-22T20:30:47.008Z,5.93
2019-03-22T20:33:16.701Z,6.03
2019-03-22T20:35:46.392Z,6.57
2019-03-22T20:38:16.141Z,5.17
2019-03-22T20:40:45.842Z,6.93
2019-03-22T20:43:15.580Z,4.93
2019-03-22T20:45:45.282Z,5.07
2019-03-22T20:48:14.991Z,4.63
2019-03-22T20:50:44.684Z,4.43
2019-03-22T20:53:14.421Z,4.60
2019-03-22T20:55:44.115Z,5.17
2019-03-22T20:58:13.821Z,5.53
2019-03-22T21:00:43.521Z,4.73
2019-03-22T21:03:13.227Z,6.03
2019-03-22T21:05:42.994Z,4.73
2019-03-22T21:08:12.680Z,4.73
2019-03-22T21:10:42.416Z,6.60
2019-03-22T21:13:12.138Z,5.13
2019-03-22T21:15:41.821Z,6.27
2019-03-22T21:18:11.539Z,6.23
2019-03-22T21:20:41.224Z,5.23
2019-03-22T21:23:11.023Z,5.50
2019-03-22T21:25:40.737Z,11.63
2019-03-22T21:28:10.443Z,4.30
2019-03-22T21:30:40.232Z,6.23
2019-03-22T21:33:09.899Z,4.83
2019-03-22T21:35:39.722Z,7.00
2019-03-22T21:38:11.213Z,5.40
2019-03-22T21:40:40.838Z,9.00
2019-03-22T21:43:10.539Z,7.37
2019-03-22T21:45:40.210Z,5.70
2019-03-22T21:48:09.898Z,6.50
2019-03-22T21:50:39.588Z,5.43
2019-03-22T21:53:09.262Z,6.33
2019-03-22T21:55:39.001Z,6.17
2019-03-22T21:58:08.670Z,6.47
2019-03-22T22:00:38.476Z,6.70
2019-03-22T22:03:08.179Z,5.47
2019-03-22T22:05:47.403Z,5.53
2019-03-22T22:08:09.305Z,5.13
2019-03-22T22:10:38.978Z,4.53
2019-03-22T22:13:08.683Z,4.17
2019-03-22T22:15:38.372Z,5.93
2019-03-22T22:18:08.049Z,8.03
2019-03-22T22:20:37.831Z,7.57
2019-03-22T22:23:07.519Z,7.07
2019-03-22T22:25:37.277Z,5.63
2019-03-22T22:28:06.966Z,8.20
2019-03-22T22:30:36.640Z,7.60
2019-03-22T22:33:06.335Z,6.37
2019-03-22T22:35:36.051Z,7.60
2019-03-22T22:38:05.742Z,6.37
2019-03-22T22:40:35.453Z,5.73
2019-03-22T22:43:05.183Z,6.53
2019-03-22T22:45:34.895Z,6.30
2019-03-22T22:48:04.586Z,5.90
2019-03-22T22:50:34.196Z,6.67
2019-03-22T22:53:03.884Z,6.77
2019-03-22T22:55:33.613Z,8.33
2019-03-22T22:58:03.338Z,6.50
2019-03-22T23:00:33.011Z,7.80
2019-03-22T23:03:02.772Z,8.07
2019-03-22T23:05:32.497Z,8.53
2019-03-22T23:08:04.504Z,7.97
2019-03-22T23:10:34.268Z,8.53
2019-03-22T23:13:03.928Z,9.17
2019-03-22T23:15:33.646Z,9.00
2019-03-22T23:18:03.350Z,10.57
2019-03-22T23:20:33.027Z,11.47
2019-03-22T23:23:02.737Z,13.93
2019-03-22T23:25:32.434Z,10.93
2019-03-22T23:28:02.169Z,10.90
2019-03-22T23:30:31.840Z,9.43
2019-03-22T23:33:01.518Z,9.57
2019-03-22T23:35:31.289Z,10.27
2019-03-22T23:38:01.116Z,11.07
2019-03-22T23:40:30.888Z,11.13
2019-03-22T23:43:00.572Z,10.27
2019-03-22T23:45:30.317Z,9.27
2019-03-22T23:48:00.111Z,10.13
2019-03-22T23:50:29.803Z,8.43
2019-03-22T23:52:59.496Z,9.60
2019-03-22T23:55:29.201Z,6.87
2019-03-22T23:57:58.878Z,8.23
